Elizabeth, LA (70638)

9:10 PM CST on February 05, 2016 (GMT -0600)
Fort Polk | | Change Station
CLOSE
Current Station
Airport
Location: Fort Polk,
Elevation: 305 ft
Nearby Weather Stations

Elev 305 ft 31.02 °N, 92.91 °W | Updated 16 minutes ago

Clear
Clear
45 °F
Feels Like 45 °F
N
0
Wind Variable Wind from North

Today
High -- | Low -- °F
--% Chance of Precip.
Yesterday
High -- | Low -- °F
Precip. -- in
Pressure 30.44 in
Visibility 10.0 miles
Clouds Clear
Dew Point 33 °F
Humidity 63%
Rainfall 0.00 in
Snow Depth Not available.
7:00 AM 5:50 PM
Waning Crescent, 8% visible
METAR KBKB 060254Z AUTO 00000KT 10SM CLR 07/01 A3035 RMK AO2 SLP308 T00720006 50009
Pressure 30.44 in
Visibility 10.0 miles
Clouds Clear
Dew Point 33 °F
Humidity 63%
Rainfall 0.00 in
Snow Depth Not available.
7:00 AM 5:50 PM
Waning Crescent, 8% visible
METAR KBKB 060254Z AUTO 00000KT 10SM CLR 07/01 A3035 RMK AO2 SLP308 T00720006 50009

10-Day Weather Forecast

Almanac

Astronomy

Feb. 05, 2016 Rise Set
Actual Time
Civil Twilight
Nautical Twilight
Astronomical Twilight
Moon
Length of Visible Light
Length of Day
Tomorrow will be .
, % of the Moon is Illuminated

Today's Extremes

State Highs State Lows

Community

WunderPhotos

Upload Photos

1,890,915 photos uploaded!

WunderBlog® & News

Nearby

Air Quality

  Air Quality AQ Index Pollutant
Not available.

Snow Depth

Station Depth Elevation

Earthquake Activity

City Distance Mag. Time & Date
Minimum magnitude displayed is 2.5.

Coastal Water Temperatures

Place Temperature

Stations

Nearby Weather Stations

Station Location Temp. Windchill Dew Point Humidity Wind Precip. Elev Updated Type
                   

Watches & Warnings

There are currently no watches in effect.